This is the latest recevied weather packets stored in our database for station/object DL3TR-13. If no packets are shown the sender has not sent any weather packets the latest 1 day(s).
| Time | Temp. | Humidity | Pressure | Rain* | Wind** | Luminosity | Snow |
|---|---|---|---|---|---|---|---|
| 1836274565 | 11.67° C | 91% | 1021.1 hPa | 0 mm | 0 m/s | 0 W/m² | - |
| 1836274415 | 11.67° C | 91% | 1021 hPa | 0 mm | 0 m/s | 0 W/m² | - |
| 1836273965 | 11.67° C | 92% | 1021.1 hPa | 0 mm | 0 m/s | 0 W/m² | - |
| 1778013190 | 10° C | 90% | 1008.4 hPa | 0.76 mm | 0 m/s | 0 W/m² | - |
| 1778012590 | 10° C | 91% | 1008.3 hPa | 1.02 mm | 0 m/s | 0 W/m² | - |
| 1778011990 | 10° C | 91% | 1008.3 hPa | 1.52 mm | 0.45 m/s, 165° | 0 W/m² | - |
| 1778011390 | 10° C | 91% | 1008.7 hPa | 1.78 mm | 0.45 m/s, 165° | 0 W/m² | - |
| 1778010790 | 10° C | 92% | 1008.8 hPa | 3.56 mm | 0.89 m/s, 156° | 0 W/m² | - |
| 1778010190 | 10° C | 92% | 1008.7 hPa | 4.32 mm | 0.89 m/s, 142° | 0 W/m² | - |
| 1778009590 | 10.56° C | 92% | 1008.8 hPa | 4.32 mm | 0.45 m/s, 180° | 0 W/m² | - |
| 1778008990 | 10.56° C | 91% | 1008.6 hPa | 4.32 mm | 0.89 m/s, 214° | 0 W/m² | - |
| 1778008390 | 10.56° C | 90% | 1008.7 hPa | 3.3 mm | 1.34 m/s, 225° | 0 W/m² | - |
| 1778007790 | 10.56° C | 89% | 1008.4 hPa | 2.79 mm | 1.79 m/s, 220° | 0 W/m² | - |
| 1778007190 | 11.11° C | 88% | 1008.2 hPa | 0.76 mm | 2.68 m/s, 223° | 0 W/m² | - |
| 1778006590 | 12.22° C | 88% | 1008 hPa | 0 mm | 3.58 m/s, 225° | 0 W/m² | - |
| 1778005990 | 12.22° C | 90% | 1007.2 hPa | 0 mm | 0.89 m/s, 217° | 0 W/m² | - |
| 1778005390 | 12.22° C | 90% | 1007.1 hPa | 0 mm | 0.45 m/s, 240° | 0 W/m² | - |
| 1778004790 | 12.22° C | 89% | 1006.9 hPa | 0 mm | 0.89 m/s, 240° | 5 W/m² | - |
| 1778004190 | 12.22° C | 89% | 1006.9 hPa | 0 mm | 0.89 m/s, 240° | 5 W/m² | - |
| 1778003590 | 12.22° C | 88% | 1006.6 hPa | 0 mm | 0.45 m/s, 240° | 9 W/m² | - |
| 1778002990 | 12.78° C | 86% | 1006.5 hPa | 0 mm | 0.45 m/s, 240° | 16 W/m² | - |
| 1778002390 | 13.33° C | 84% | 1006.5 hPa | 0 mm | 0.89 m/s, 239° | 16 W/m² | - |
| 1778001790 | 13.89° C | 83% | 1006.4 hPa | 0 mm | 1.79 m/s, 240° | 28 W/m² | - |
| 1778001190 | 14.44° C | 82% | 1006.2 hPa | 0 mm | 0.89 m/s, 258° | 47 W/m² | - |
| 1778000590 | 15° C | 81% | 1006 hPa | 0 mm | 1.34 m/s, 245° | 83 W/m² | - |
* Rain latest hour (hover to see other rain measurements)
** Current wind speed in m/s (hover to see current wind gust speed)